createdAt,value
2019-03-31T00:02:07.197Z,57.70
2019-03-31T00:04:35.634Z,57.80
2019-03-31T00:07:04.058Z,58.00
2019-03-31T00:09:32.478Z,58.20
2019-03-31T00:12:00.983Z,58.10
2019-03-31T00:14:29.392Z,58.30
2019-03-31T00:16:57.829Z,58.20
2019-03-31T00:19:26.281Z,58.30
2019-03-31T00:21:54.757Z,58.20
2019-03-31T00:24:23.191Z,58.10
2019-03-31T00:26:51.694Z,58.10
2019-03-31T00:29:20.113Z,58.20
2019-03-31T00:31:48.530Z,58.10
2019-03-31T00:34:16.938Z,58.20
2019-03-31T00:36:45.401Z,58.40
2019-03-31T00:39:13.829Z,58.50
2019-03-31T00:41:42.258Z,58.70
2019-03-31T00:44:10.672Z,58.90
2019-03-31T00:46:39.085Z,59.10
2019-03-31T00:49:07.497Z,59.30
2019-03-31T00:51:35.926Z,59.40
2019-03-31T00:54:04.330Z,59.70
2019-03-31T00:56:32.753Z,59.80
2019-03-31T00:59:01.174Z,60.00
2019-03-31T01:01:36.658Z,60.30
2019-03-31T01:04:05.960Z,60.60
2019-03-31T01:06:35.916Z,60.60
2019-03-31T01:09:09.067Z,60.80
2019-03-31T01:11:37.503Z,61.00
2019-03-31T01:14:05.997Z,61.30
2019-03-31T01:16:34.485Z,61.40
2019-03-31T01:19:04.648Z,61.70
2019-03-31T01:21:33.067Z,62.00
2019-03-31T01:24:01.563Z,61.90
2019-03-31T01:26:29.980Z,61.90
2019-03-31T01:28:58.864Z,62.00
2019-03-31T01:31:28.602Z,61.90
2019-03-31T01:33:57.527Z,62.20
2019-03-31T01:36:25.929Z,63.10
2019-03-31T01:38:54.356Z,62.40
2019-03-31T01:41:22.766Z,62.50
2019-03-31T01:43:51.499Z,62.50
2019-03-31T01:46:21.641Z,62.70
2019-03-31T01:48:50.066Z,62.90
2019-03-31T01:51:18.485Z,62.90
2019-03-31T01:53:46.906Z,63.00
2019-03-31T01:56:15.427Z,63.10
2019-03-31T01:58:44.247Z,63.20
2019-03-31T02:01:14.735Z,63.20
2019-03-31T02:03:43.428Z,63.20
2019-03-31T02:06:12.145Z,63.30
2019-03-31T02:08:40.915Z,63.20
2019-03-31T02:11:09.332Z,62.90
2019-03-31T02:13:37.763Z,62.90
2019-03-31T02:16:06.194Z,62.80
2019-03-31T02:18:34.618Z,62.90
2019-03-31T02:21:03.211Z,62.80
2019-03-31T02:23:31.706Z,62.90
2019-03-31T02:26:00.187Z,63.00
2019-03-31T02:28:28.634Z,63.30
2019-03-31T02:30:57.046Z,63.10
2019-03-31T02:33:25.837Z,63.30
2019-03-31T02:35:54.295Z,63.30
2019-03-31T02:38:22.761Z,63.40
2019-03-31T02:40:51.219Z,63.60
2019-03-31T02:43:19.629Z,63.70
2019-03-31T02:45:48.634Z,63.70
2019-03-31T02:48:17.086Z,63.90
2019-03-31T02:50:48.285Z,63.70
2019-03-31T02:53:17.096Z,63.80
2019-03-31T02:55:45.934Z,63.80
2019-03-31T02:58:15.555Z,63.90
2019-03-31T03:00:44.944Z,64.20
2019-03-31T03:03:34.206Z,64.40
2019-03-31T03:06:04.947Z,65.40
2019-03-31T03:08:36.095Z,64.70
2019-03-31T03:11:04.569Z,65.00
2019-03-31T03:13:35.010Z,65.10
2019-03-31T03:16:09.179Z,65.20
2019-03-31T03:18:37.604Z,65.30
2019-03-31T03:21:06.007Z,65.50
2019-03-31T03:23:34.428Z,65.40
2019-03-31T03:26:02.833Z,65.60
2019-03-31T03:28:31.242Z,65.90
2019-03-31T03:30:59.919Z,66.30
2019-03-31T03:33:28.753Z,66.40
2019-03-31T03:35:57.231Z,66.40
2019-03-31T03:38:25.679Z,66.50
2019-03-31T03:40:54.087Z,66.60
2019-03-31T03:43:22.495Z,66.60
2019-03-31T03:45:50.930Z,66.50
2019-03-31T03:48:19.998Z,67.40
2019-03-31T03:50:48.403Z,67.10
2019-03-31T03:53:16.806Z,66.90
2019-03-31T03:55:45.535Z,66.90
2019-03-31T03:58:14.656Z,66.90
2019-03-31T04:00:43.646Z,67.00
2019-03-31T04:03:28.979Z,67.30
2019-03-31T04:05:42.176Z,67.30
2019-03-31T04:08:10.591Z,67.50
2019-03-31T04:10:44.794Z,67.70
2019-03-31T04:13:13.662Z,67.70
2019-03-31T04:15:42.279Z,68.30
2019-03-31T04:18:10.720Z,67.90
2019-03-31T04:20:39.825Z,68.10
2019-03-31T04:23:08.572Z,68.40
2019-03-31T04:25:37.323Z,68.30
2019-03-31T04:28:05.746Z,68.50
2019-03-31T04:30:34.164Z,68.90
2019-03-31T04:33:02.670Z,68.70
2019-03-31T04:35:31.170Z,68.40
2019-03-31T04:37:59.653Z,68.50
2019-03-31T04:40:28.159Z,68.80
2019-03-31T04:42:56.812Z,69.00
2019-03-31T04:45:25.531Z,69.80
2019-03-31T04:47:53.935Z,68.90
2019-03-31T04:50:22.358Z,68.90
2019-03-31T04:52:51.176Z,68.90
2019-03-31T04:55:19.598Z,69.00
2019-03-31T04:57:48.006Z,69.00
2019-03-31T05:00:16.524Z,69.20
2019-03-31T05:02:45.262Z,69.20
2019-03-31T05:05:13.805Z,69.20
2019-03-31T05:07:42.238Z,69.50
2019-03-31T05:10:10.724Z,69.50
2019-03-31T05:12:39.145Z,69.50
2019-03-31T05:15:07.631Z,69.60
2019-03-31T05:17:36.106Z,69.80
2019-03-31T05:20:05.902Z,69.90
2019-03-31T05:22:34.300Z,70.20
2019-03-31T05:25:02.797Z,70.40
2019-03-31T05:27:31.287Z,70.50
2019-03-31T05:29:59.723Z,70.60
2019-03-31T05:32:28.119Z,70.90
2019-03-31T05:34:56.542Z,70.90
2019-03-31T05:37:25.241Z,70.90
2019-03-31T05:39:53.641Z,70.90
2019-03-31T05:42:22.051Z,71.20
2019-03-31T05:44:50.467Z,71.20
2019-03-31T05:47:18.884Z,71.40
2019-03-31T05:49:47.285Z,71.30
2019-03-31T05:52:16.695Z,71.30
2019-03-31T05:54:45.104Z,71.30
2019-03-31T05:57:13.512Z,71.40
2019-03-31T05:59:41.960Z,71.50
2019-03-31T06:02:10.493Z,71.70
2019-03-31T06:04:38.998Z,71.70
2019-03-31T06:07:07.705Z,71.80
2019-03-31T06:09:36.116Z,71.60
2019-03-31T06:12:04.525Z,71.30
2019-03-31T06:14:32.939Z,71.00
2019-03-31T06:17:01.442Z,70.70
2019-03-31T06:19:29.839Z,70.50
2019-03-31T06:21:58.274Z,70.20
2019-03-31T06:24:26.770Z,70.00
2019-03-31T06:26:55.185Z,69.70
2019-03-31T06:29:23.585Z,69.50
2019-03-31T06:31:52.058Z,69.20
2019-03-31T06:34:20.469Z,69.20
2019-03-31T06:36:48.916Z,69.20
2019-03-31T06:39:36.639Z,69.30
2019-03-31T06:42:05.123Z,69.10
2019-03-31T06:44:33.542Z,68.60
2019-03-31T06:47:01.984Z,68.20
2019-03-31T06:49:30.540Z,67.90
2019-03-31T06:51:58.992Z,67.30
2019-03-31T06:54:27.775Z,67.10
2019-03-31T06:56:56.193Z,67.40
2019-03-31T06:59:25.531Z,68.00
2019-03-31T07:01:54.007Z,68.00
2019-03-31T07:04:22.462Z,68.00
2019-03-31T07:06:50.888Z,67.80
2019-03-31T07:09:19.333Z,67.40
2019-03-31T07:11:48.688Z,67.00
2019-03-31T07:14:17.382Z,66.60
2019-03-31T07:16:45.787Z,65.70
2019-03-31T07:19:14.212Z,65.00
2019-03-31T07:21:42.690Z,63.70
2019-03-31T07:24:11.707Z,62.70
2019-03-31T07:26:40.138Z,62.20
2019-03-31T07:29:08.775Z,61.30
2019-03-31T07:31:37.209Z,60.30
2019-03-31T07:34:05.622Z,59.40
2019-03-31T07:36:34.040Z,58.70
2019-03-31T07:39:03.064Z,57.90
2019-03-31T07:41:31.918Z,57.10
2019-03-31T07:44:00.867Z,56.30
2019-03-31T07:46:29.295Z,55.50
2019-03-31T07:48:57.694Z,55.20
2019-03-31T07:51:26.095Z,54.60
2019-03-31T07:53:54.570Z,54.20
2019-03-31T07:56:23.025Z,54.00
2019-03-31T07:58:51.442Z,52.80
2019-03-31T08:01:19.857Z,52.30
2019-03-31T08:03:48.269Z,52.00
2019-03-31T08:06:16.665Z,51.20
2019-03-31T08:08:45.327Z,50.60
2019-03-31T08:11:16.927Z,49.80
2019-03-31T08:13:43.877Z,49.30
2019-03-31T08:16:12.377Z,48.80
2019-03-31T08:18:40.804Z,48.40
2019-03-31T08:21:09.205Z,48.10
2019-03-31T08:23:37.649Z,47.50
2019-03-31T08:26:06.131Z,46.60
2019-03-31T08:28:36.184Z,45.90
2019-03-31T08:31:04.681Z,45.90
2019-03-31T08:33:33.310Z,45.70
2019-03-31T08:36:01.724Z,45.60
2019-03-31T08:38:31.159Z,45.20
2019-03-31T08:40:59.729Z,44.70
2019-03-31T08:43:28.166Z,44.70
2019-03-31T08:45:56.585Z,43.50
2019-03-31T08:48:25.012Z,43.20
2019-03-31T08:50:53.412Z,43.10
2019-03-31T08:53:21.903Z,42.90
2019-03-31T08:55:50.316Z,42.70
2019-03-31T08:58:19.079Z,42.40
2019-03-31T09:00:49.137Z,41.80
2019-03-31T09:03:24.507Z,41.20
2019-03-31T09:06:01.551Z,40.90
2019-03-31T09:08:29.866Z,40.60
2019-03-31T09:11:04.123Z,40.30
2019-03-31T09:13:32.560Z,39.80
2019-03-31T09:16:00.986Z,39.50
2019-03-31T09:18:29.411Z,39.30
2019-03-31T09:20:57.816Z,38.70
2019-03-31T09:23:26.244Z,38.30
2019-03-31T09:25:54.735Z,37.60
2019-03-31T09:28:23.196Z,36.80
2019-03-31T09:30:51.707Z,36.70
2019-03-31T09:33:20.206Z,36.00
2019-03-31T09:35:48.690Z,35.90
2019-03-31T09:38:17.111Z,35.30
2019-03-31T09:40:45.522Z,34.60
2019-03-31T09:43:13.965Z,34.30
2019-03-31T09:45:42.412Z,34.00
2019-03-31T09:48:11.058Z,33.80
2019-03-31T09:50:39.468Z,33.70
2019-03-31T09:53:07.910Z,33.00
2019-03-31T09:55:36.594Z,32.70
2019-03-31T09:58:05.123Z,32.70
2019-03-31T10:00:42.496Z,32.70
2019-03-31T10:03:10.900Z,33.00
2019-03-31T10:05:39.330Z,33.20
2019-03-31T10:08:07.749Z,33.80
2019-03-31T10:10:36.318Z,34.30
2019-03-31T10:13:04.763Z,34.70
2019-03-31T10:15:33.240Z,35.00
2019-03-31T10:18:01.649Z,35.20
2019-03-31T10:20:31.564Z,35.50
2019-03-31T10:23:00.280Z,35.70
2019-03-31T10:25:28.705Z,36.00
2019-03-31T10:27:57.121Z,36.40
2019-03-31T10:30:35.909Z,36.80
2019-03-31T10:33:04.956Z,38.00
2019-03-31T10:35:33.436Z,37.90
2019-03-31T10:38:02.255Z,38.40
2019-03-31T10:40:30.995Z,39.00
2019-03-31T10:42:59.398Z,39.40
2019-03-31T10:45:28.236Z,40.00
2019-03-31T10:47:56.665Z,40.50
2019-03-31T10:50:25.236Z,41.00
2019-03-31T10:52:53.642Z,41.40
2019-03-31T10:55:22.070Z,41.80
2019-03-31T10:57:50.483Z,42.20
2019-03-31T11:00:33.986Z,42.50
2019-03-31T11:03:02.494Z,42.80
2019-03-31T11:05:30.921Z,43.20
2019-03-31T11:07:59.393Z,43.60
2019-03-31T11:10:27.852Z,43.70
2019-03-31T11:12:56.333Z,43.80
2019-03-31T11:15:24.756Z,43.90
2019-03-31T11:17:53.154Z,44.00
2019-03-31T11:20:21.639Z,44.10
2019-03-31T11:23:03.856Z,44.40
2019-03-31T11:25:32.288Z,44.20
2019-03-31T11:28:00.701Z,44.20
2019-03-31T11:30:29.209Z,44.00
2019-03-31T11:32:57.623Z,43.60
2019-03-31T11:35:26.048Z,43.00
2019-03-31T11:37:54.458Z,42.20
2019-03-31T11:40:22.922Z,41.70
2019-03-31T11:42:51.333Z,40.80
2019-03-31T11:45:19.832Z,40.10
2019-03-31T11:47:48.936Z,39.30
2019-03-31T11:50:17.515Z,38.70
2019-03-31T11:52:45.953Z,38.40
2019-03-31T11:55:14.650Z,38.10
2019-03-31T11:57:43.070Z,37.70
2019-03-31T12:00:22.355Z,37.30
2019-03-31T12:02:51.052Z,36.90
2019-03-31T12:05:19.478Z,36.60
2019-03-31T12:07:47.907Z,36.00
2019-03-31T12:10:19.663Z,35.80
2019-03-31T12:12:46.602Z,35.20
2019-03-31T12:15:15.007Z,35.30
2019-03-31T12:17:43.640Z,35.30
2019-03-31T12:20:12.261Z,35.20
2019-03-31T12:22:40.674Z,35.00
2019-03-31T12:25:09.269Z,34.90
2019-03-31T12:27:37.763Z,34.70
2019-03-31T12:30:09.262Z,34.50
2019-03-31T12:32:38.644Z,34.20
2019-03-31T12:35:08.477Z,34.10
2019-03-31T12:37:42.805Z,34.30
2019-03-31T12:40:09.503Z,34.50
2019-03-31T12:42:37.920Z,35.00
2019-03-31T12:45:06.501Z,35.70
2019-03-31T12:47:35.329Z,36.30
2019-03-31T12:50:05.657Z,36.80
2019-03-31T12:52:46.146Z,37.10
2019-03-31T12:55:05.171Z,37.20
2019-03-31T12:57:33.574Z,37.20
2019-03-31T13:00:02.014Z,37.30
2019-03-31T13:02:30.490Z,37.90
2019-03-31T13:04:59.960Z,37.20
2019-03-31T13:07:28.509Z,37.00
2019-03-31T13:09:56.933Z,36.70
2019-03-31T13:12:25.365Z,36.70
2019-03-31T13:14:53.822Z,36.60
2019-03-31T13:17:22.240Z,36.70
2019-03-31T13:19:50.647Z,36.60
2019-03-31T13:22:19.070Z,36.60
2019-03-31T13:24:47.487Z,36.80
2019-03-31T13:27:15.965Z,37.00
2019-03-31T13:29:44.469Z,37.40
2019-03-31T13:32:12.900Z,37.70
2019-03-31T13:34:41.355Z,37.70
2019-03-31T13:37:09.798Z,37.70
2019-03-31T13:39:38.465Z,37.80
2019-03-31T13:42:06.898Z,38.00
2019-03-31T13:44:35.346Z,38.30
2019-03-31T13:47:03.838Z,38.60
2019-03-31T13:49:32.248Z,39.00
2019-03-31T13:52:00.740Z,39.30
2019-03-31T13:54:29.172Z,39.50
2019-03-31T13:56:58.243Z,39.70
2019-03-31T13:59:26.801Z,39.90
2019-03-31T14:01:55.215Z,40.20
2019-03-31T14:04:24.110Z,40.40
2019-03-31T14:06:52.545Z,40.60
2019-03-31T14:09:21.071Z,40.60
2019-03-31T14:11:49.515Z,40.70
2019-03-31T14:14:17.957Z,40.80
2019-03-31T14:16:47.120Z,40.90
2019-03-31T14:19:15.560Z,40.80
2019-03-31T14:21:43.977Z,40.80
2019-03-31T14:24:12.424Z,40.90
2019-03-31T14:26:40.840Z,41.10
2019-03-31T14:29:09.273Z,41.20
2019-03-31T14:31:37.660Z,41.50
2019-03-31T14:34:06.078Z,41.70
2019-03-31T14:36:34.786Z,41.80
2019-03-31T14:39:05.641Z,41.90
2019-03-31T14:41:34.536Z,42.00
2019-03-31T14:44:03.049Z,42.00
2019-03-31T14:46:31.500Z,42.10
2019-03-31T14:48:59.923Z,42.20
2019-03-31T14:51:28.399Z,42.30
2019-03-31T14:53:57.742Z,42.50
2019-03-31T14:56:26.172Z,42.30
2019-03-31T14:58:54.583Z,42.30
2019-03-31T15:01:23.001Z,42.40
2019-03-31T15:03:51.594Z,42.40
2019-03-31T15:06:21.141Z,42.50
2019-03-31T15:08:54.683Z,42.70
2019-03-31T15:11:22.007Z,42.60
2019-03-31T15:13:49.879Z,42.60
2019-03-31T15:16:18.287Z,42.60
2019-03-31T15:18:46.706Z,42.50
2019-03-31T15:21:15.122Z,42.40
2019-03-31T15:23:43.650Z,42.40
2019-03-31T15:26:12.063Z,42.40
2019-03-31T15:28:40.467Z,42.50
2019-03-31T15:31:08.878Z,42.50
2019-03-31T15:33:37.305Z,42.60
2019-03-31T15:36:05.973Z,42.70
2019-03-31T15:38:34.395Z,42.70
2019-03-31T15:41:02.788Z,42.80
2019-03-31T15:43:32.164Z,42.90
2019-03-31T15:46:00.569Z,43.20
2019-03-31T15:48:29.079Z,43.30
2019-03-31T15:50:57.867Z,43.40
2019-03-31T15:53:26.297Z,43.70
2019-03-31T15:55:54.702Z,43.60
2019-03-31T15:58:23.111Z,43.60
2019-03-31T16:00:51.790Z,43.60
2019-03-31T16:03:20.205Z,43.70
2019-03-31T16:05:48.629Z,43.60
2019-03-31T16:08:17.349Z,43.80
2019-03-31T16:10:45.766Z,43.90
2019-03-31T16:13:14.216Z,44.00
2019-03-31T16:15:42.691Z,44.10
2019-03-31T16:18:11.111Z,44.10
2019-03-31T16:20:39.538Z,44.20
2019-03-31T16:23:07.937Z,44.30
2019-03-31T16:25:38.001Z,44.50
2019-03-31T16:28:06.407Z,44.70
2019-03-31T16:30:35.865Z,44.60
2019-03-31T16:33:07.027Z,44.60
2019-03-31T16:35:34.542Z,44.70
2019-03-31T16:38:02.978Z,44.60
2019-03-31T16:40:31.478Z,44.60
2019-03-31T16:42:59.888Z,44.60
2019-03-31T16:45:28.757Z,44.70
2019-03-31T16:47:57.213Z,44.90
2019-03-31T16:50:25.629Z,45.00
2019-03-31T16:52:54.079Z,45.10
2019-03-31T16:55:22.645Z,45.10
2019-03-31T16:57:51.071Z,45.30
2019-03-31T17:00:19.786Z,45.60
2019-03-31T17:02:52.161Z,45.50
2019-03-31T17:05:22.440Z,45.80
2019-03-31T17:07:50.918Z,45.80
2019-03-31T17:10:19.333Z,46.00
2019-03-31T17:12:47.782Z,46.20
2019-03-31T17:15:16.381Z,46.20
2019-03-31T17:17:44.813Z,46.50
2019-03-31T17:20:13.796Z,46.60
2019-03-31T17:22:42.270Z,46.50
2019-03-31T17:25:10.854Z,46.80
2019-03-31T17:27:39.278Z,47.30
2019-03-31T17:30:08.229Z,47.40
2019-03-31T17:32:36.624Z,47.40
2019-03-31T17:35:05.971Z,47.40
2019-03-31T17:37:34.462Z,47.60
2019-03-31T17:40:06.209Z,47.90
2019-03-31T17:42:33.979Z,47.90
2019-03-31T17:45:02.424Z,48.10
2019-03-31T17:47:30.831Z,48.10
2019-03-31T17:49:59.350Z,48.30
2019-03-31T17:52:27.791Z,48.40
2019-03-31T17:54:56.216Z,48.60
2019-03-31T17:57:24.613Z,48.70
2019-03-31T17:59:53.287Z,49.00
2019-03-31T18:02:21.689Z,49.20
2019-03-31T18:04:50.102Z,49.20
2019-03-31T18:07:18.499Z,49.40
2019-03-31T18:09:47.083Z,49.70
2019-03-31T18:12:16.100Z,49.60
2019-03-31T18:14:44.579Z,49.90
2019-03-31T18:17:13.029Z,49.80
2019-03-31T18:19:41.452Z,49.90
2019-03-31T18:22:16.417Z,50.00
2019-03-31T18:24:40.129Z,50.30
2019-03-31T18:27:08.551Z,50.30
2019-03-31T18:29:36.948Z,50.70
2019-03-31T18:32:05.373Z,50.80
2019-03-31T18:34:33.808Z,50.60
2019-03-31T18:37:02.212Z,50.80
2019-03-31T18:39:30.642Z,51.00
2019-03-31T18:41:59.081Z,51.00
2019-03-31T18:44:27.481Z,51.20
2019-03-31T18:46:55.907Z,51.30
2019-03-31T18:49:24.303Z,51.50
2019-03-31T18:51:52.722Z,51.40
2019-03-31T18:54:22.784Z,52.10
2019-03-31T18:57:01.399Z,51.40
2019-03-31T18:59:37.168Z,51.40
2019-03-31T19:02:13.298Z,51.70
2019-03-31T19:04:55.345Z,51.50
2019-03-31T19:07:28.206Z,51.80
2019-03-31T19:10:24.554Z,51.60
2019-03-31T19:13:02.491Z,51.60
2019-03-31T19:15:41.482Z,51.80
2019-03-31T19:18:28.115Z,51.80
2019-03-31T19:21:11.482Z,51.90
2019-03-31T19:23:35.899Z,51.80
2019-03-31T19:26:15.339Z,51.80
2019-03-31T19:28:51.106Z,51.90
2019-03-31T19:31:21.136Z,51.90
2019-03-31T19:34:00.349Z,52.00
2019-03-31T19:36:30.391Z,52.00
2019-03-31T19:39:01.394Z,52.20
2019-03-31T19:41:34.491Z,52.60
2019-03-31T19:44:10.232Z,52.20
2019-03-31T19:46:56.733Z,52.30
2019-03-31T19:49:26.789Z,52.20
2019-03-31T19:52:06.564Z,52.30
2019-03-31T19:54:39.760Z,52.50
2019-03-31T19:57:26.388Z,52.70
2019-03-31T19:59:56.507Z,52.30
2019-03-31T20:02:26.577Z,52.40
2019-03-31T20:05:02.495Z,52.50
2019-03-31T20:07:44.571Z,52.50
2019-03-31T20:10:14.762Z,52.40
2019-03-31T20:13:01.314Z,52.40
2019-03-31T20:15:43.609Z,52.60
2019-03-31T20:18:19.819Z,52.50
2019-03-31T20:20:49.878Z,52.50
2019-03-31T20:23:28.725Z,52.60
2019-03-31T20:26:10.533Z,52.60
2019-03-31T20:28:40.594Z,52.60
2019-03-31T20:31:11.401Z,52.60
2019-03-31T20:33:44.442Z,52.80
2019-03-31T20:36:14.519Z,52.80
2019-03-31T20:38:47.609Z,52.70
2019-03-31T20:41:23.438Z,52.80
2019-03-31T20:43:53.911Z,53.00
2019-03-31T20:46:22.961Z,52.90
2019-03-31T20:48:52.270Z,53.00
2019-03-31T20:51:20.805Z,52.90
2019-03-31T20:53:49.246Z,53.10
2019-03-31T20:56:17.678Z,53.20
2019-03-31T20:58:46.077Z,53.70
2019-03-31T21:01:14.500Z,53.30
2019-03-31T21:03:42.913Z,53.40
2019-03-31T21:06:11.657Z,53.40
2019-03-31T21:08:40.140Z,53.80
2019-03-31T21:11:08.708Z,53.60
2019-03-31T21:13:37.178Z,53.60
2019-03-31T21:16:05.718Z,53.60
2019-03-31T21:18:34.137Z,53.10
2019-03-31T21:21:02.591Z,53.70
2019-03-31T21:23:30.992Z,53.80
2019-03-31T21:25:59.480Z,53.90
2019-03-31T21:28:27.899Z,53.80
2019-03-31T21:30:56.304Z,53.90
2019-03-31T21:33:24.730Z,53.90
2019-03-31T21:35:53.145Z,54.00
2019-03-31T21:38:21.543Z,54.00
2019-03-31T21:40:50.716Z,54.00
2019-03-31T21:43:19.194Z,54.00
2019-03-31T21:45:47.617Z,54.00
2019-03-31T21:48:16.021Z,54.00
2019-03-31T21:50:44.433Z,54.20
2019-03-31T21:53:13.108Z,54.00
2019-03-31T21:55:41.526Z,54.00
2019-03-31T21:58:10.013Z,53.90
2019-03-31T22:00:45.903Z,53.90
2019-03-31T22:03:14.301Z,53.90
2019-03-31T22:05:42.698Z,53.90
2019-03-31T22:08:11.129Z,53.80
2019-03-31T22:10:39.602Z,53.80
2019-03-31T22:13:08.031Z,54.20
2019-03-31T22:15:36.516Z,53.70
2019-03-31T22:18:04.930Z,53.70
2019-03-31T22:20:33.735Z,53.70
2019-03-31T22:23:02.444Z,53.70
2019-03-31T22:25:30.842Z,53.60
2019-03-31T22:27:59.262Z,53.60
2019-03-31T22:30:27.669Z,53.60
2019-03-31T22:32:56.092Z,53.50
2019-03-31T22:35:24.494Z,53.50
2019-03-31T22:37:52.973Z,53.50
2019-03-31T22:40:22.281Z,53.60
2019-03-31T22:42:50.684Z,53.50
2019-03-31T22:45:19.078Z,53.60
2019-03-31T22:47:47.505Z,53.70
2019-03-31T22:50:15.926Z,53.60
2019-03-31T22:52:44.357Z,53.60
2019-03-31T22:55:12.841Z,53.60
2019-03-31T22:57:41.286Z,53.60
2019-03-31T23:00:12.962Z,53.50
2019-03-31T23:02:40.618Z,53.50
2019-03-31T23:05:09.070Z,53.60
2019-03-31T23:07:37.762Z,53.40
2019-03-31T23:10:07.078Z,53.40
2019-03-31T23:12:35.495Z,53.40
2019-03-31T23:15:06.139Z,53.40
2019-03-31T23:17:34.506Z,53.40
2019-03-31T23:20:02.914Z,53.50
2019-03-31T23:22:31.324Z,53.40
2019-03-31T23:24:59.753Z,53.70
2019-03-31T23:27:28.180Z,53.50
2019-03-31T23:29:56.587Z,53.40
2019-03-31T23:32:24.997Z,53.50
2019-03-31T23:34:53.418Z,53.50
2019-03-31T23:37:22.085Z,53.50
2019-03-31T23:39:50.772Z,53.40
2019-03-31T23:42:19.162Z,53.50
2019-03-31T23:44:47.573Z,53.60
2019-03-31T23:47:15.972Z,53.40
2019-03-31T23:49:44.378Z,53.40
2019-03-31T23:52:12.785Z,53.40
2019-03-31T23:54:41.183Z,53.40
2019-03-31T23:57:09.586Z,53.40
2019-03-31T23:59:38.010Z,53.50
